Thunder radar more information blitzortung!


avvertimento per Pioggia more information rain snow radar


altri nostri siti meteo:

PomeziameteoStazione ufficiale di Pomezia

MeteopomeziaSito sulle condizioni meteo



Neve/Ghiaccio Inizio validita dal: 05-12-2020 10:00 Fino: 23:59 Allerta per: Neve/Ghiaccio Livello: Arancione info button
Pioggia Inizio validita dal: 05-12-2020 10:00 Fino: 07-12-2020 23:59 Allerta per: Pioggia Livello: Giallo info button

Report METAR

   
LIMP - Parma
Dati ricevuti: 05-12-2020 21:50
Pioggia, Coperto  
Pioggia, Coperto  
   Vento: Nord 5.6 km/h
Vento: Nord 5.6 km/h
Temperatura: 3°C
Temperatura Vento: 2°C
P.to Rugiada: 3°C
Umidita: 100%
Barometro: 999 hPa
Nuvole: Coperto
Visibilita: 5 km
dettagli cloud: Coperto 2000 ft
LIMP 052050Z 35003KT 320V080 5000 RA OVC020 03/03 Q0999
LIPE - Bologna
Dati ricevuti: 05-12-2020 22:20
Pioggia leggera, Parzialmente nuvoloso  
Pioggia leggera, Parzialmente nuvoloso  
   Vento: SE 5.6 km/h
Vento: SE 5.6 km/h
Temperatura: 5°C
Temperatura Vento: 4°C
P.to Rugiada: 5°C
Umidita: 100%
Barometro: 1000 hPa
Nuvole: Parzialmente nuvoloso
Visibilita: 6 km
dettagli cloud: Parzialmente nuvoloso 5500 ft
LIPE 052120Z 11003KT 060V130 6000 -RA SCT055 05/05 Q1000 RERA
LIPO - Brescia/Montichi
Dati ricevuti: 05-12-2020 22:20
Coperto  
Coperto  
   Vento: Variabile 1.9 km/h
Vento: Variabile 1.9 km/h
Temperatura: 4°C
P.to Rugiada: 4°C
Umidita: 100%
Barometro: 999 hPa
Nuvole: Coperto
dettagli cloud: Coperto 200 ft
LIPO 052120Z AUTO VRB01KT //// // OVC002/// 04/04 Q0999
LIPF - Ferrara
Dati ricevuti: 05-12-2020 18:55
DATI Obsoleti
Nebbia, Molto nuvoloso  
Nebbia, Molto nuvoloso  
   Vento: Variabile calma
Vento: Variabile calma
Temperatura: 6°C
P.to Rugiada: 5°C
Umidita: 93%
Barometro: 998 hPa
Nuvole: Molto nuvoloso
Visibilita: 2 km
dettagli cloud: Molto nuvoloso 500 ft,
Molto nuvoloso 1500 ft
LIPF 051755Z /////KT 2000 BR BKN005 BKN015 06/05 Q0998
LIPL - Ghedi
Dati ricevuti: 05-12-2020 21:55
Pioggia leggera, Nebbia, Molto nuvoloso  
Pioggia leggera, Nebbia, Molto nuvoloso  
   Vento: S 3.7 km/h
Vento: S 3.7 km/h
Temperatura: 4°C
P.to Rugiada: 1°C
Umidita: 81%
Barometro: 998 hPa
Nuvole: Molto nuvoloso
Visibilita: 3 km
dettagli cloud: Parzialmente nuvoloso 300 ft,
Molto nuvoloso 1500 ft
LIPL 052055Z 21002KT 3000 -RA BR SCT003 BKN015 04/01 Q0998 RMK OVC VIS MIN 3000 WIND THR31 22003KT WIND THR13 21002KT YLO
LIVC - Monte Cimone
Dati ricevuti: 05-12-2020 13:55
DATI Obsoleti
  
  
   Vento: S 55.6 km/h<br />Gust to 55.6 km/h
Vento: S 55.6 km/h
Gust to 55.6 km/h
Temperatura: 0°C
Temperatura Vento: -8°C
P.to Rugiada: 0°C
Umidita: 100%
Barometro: 992 hPa
LIVC 051255Z AUTO 20030G47KT 140V250 //// 00/00 Q0992
LIMS - Piacenza
Dati ricevuti: 05-12-2020 18:55
DATI Obsoleti
Pioggia leggera, Nebbia, Molto nuvoloso  
Pioggia leggera, Nebbia, Molto nuvoloso  
   Vento: West 5.6 km/h
Vento: West 5.6 km/h
Temperatura: 2°C
Temperatura Vento: 1°C
P.to Rugiada: 2°C
Umidita: 100%
Barometro: 998 hPa
Nuvole: Molto nuvoloso
Visibilita: 2 km
dettagli cloud: Parzialmente nuvoloso 1000 ft,
Molto nuvoloso 2000 ft
LIMS 051755Z 26003KT 1500 -RA BR SCT010 BKN020 02/02 Q0998
LIMT - Passo della Cisa
Dati ricevuti: 23-09-2019 13:55
DATI Obsoleti
Nebbia  
Nebbia  
   Vento: calma
Vento: calma
Temperatura: 10°C
P.to Rugiada: 10°C
Umidita: 100%
Barometro: 1014 hPa
Visibilita: 0 km
dettagli cloud: Coperto
LIMT 231155Z 00000KT 0000 FG VV/// 10/10 Q1014 RMK MON INVIS VAL INVIS VIS MIN 0000
LIPU - Padova
Dati ricevuti: 05-12-2020 08:00
DATI Obsoleti
Deboli piogge, Molto nuvoloso  
Deboli piogge, Molto nuvoloso  
   Vento: NE 7.4 km/h
Vento: NE 7.4 km/h
Temperatura: 10°C
Temperatura Vento: 9°C
P.to Rugiada: 10°C
Umidita: 100%
Barometro: 999 hPa
Nuvole: Molto nuvoloso
Visibilita: 7 km
dettagli cloud: Parzialmente nuvoloso 500 ft,
Molto nuvoloso 3000 ft
LIPU 050700Z 02004KT 7000 -DZ SCT005 BKN030 10/10 Q0999

Script sviluppato da  Saratoga-weather.org Adattato per il modello da  Weerstation Leuven

Strumentazione usata:

Stazione meteo
Davis VP2

Programma gestore dati meteo
WVIEW

Server per i dati meteo
Pc-WDS5

Davis VP2

WVIEW

Pc-WDS5